sensor_id;sensor_type;location;lat;lon;timestamp;P1;durP1;ratioP1;P2;durP2;ratioP2
2622;SDS011;1321;48.690;9.022;2023-05-29T00:01:11;11.20;;;10.50;;
2622;SDS011;1321;48.690;9.022;2023-05-29T00:03:39;12.20;;;11.27;;
2622;SDS011;1321;48.690;9.022;2023-05-29T00:06:09;12.93;;;12.03;;
2622;SDS011;1321;48.690;9.022;2023-05-29T00:08:37;11.53;;;10.80;;
2622;SDS011;1321;48.690;9.022;2023-05-29T00:11:05;11.97;;;11.10;;
2622;SDS011;1321;48.690;9.022;2023-05-29T00:13:33;11.83;;;11.13;;
2622;SDS011;1321;48.690;9.022;2023-05-29T00:16:03;13.37;;;12.37;;
2622;SDS011;1321;48.690;9.022;2023-05-29T00:18:32;12.43;;;11.73;;
2622;SDS011;1321;48.690;9.022;2023-05-29T00:21:01;12.50;;;11.80;;
2622;SDS011;1321;48.690;9.022;2023-05-29T00:23:29;12.43;;;11.80;;
2622;SDS011;1321;48.690;9.022;2023-05-29T00:25:57;12.83;;;12.03;;
2622;SDS011;1321;48.690;9.022;2023-05-29T00:28:26;12.40;;;11.70;;
2622;SDS011;1321;48.690;9.022;2023-05-29T00:30:54;13.10;;;12.30;;
2622;SDS011;1321;48.690;9.022;2023-05-29T00:33:23;13.50;;;12.50;;
2622;SDS011;1321;48.690;9.022;2023-05-29T00:35:52;13.30;;;12.40;;
2622;SDS011;1321;48.690;9.022;2023-05-29T00:38:20;13.83;;;12.73;;
2622;SDS011;1321;48.690;9.022;2023-05-29T00:40:48;13.10;;;12.20;;
2622;SDS011;1321;48.690;9.022;2023-05-29T00:43:16;14.07;;;12.90;;
2622;SDS011;1321;48.690;9.022;2023-05-29T00:45:45;12.60;;;11.63;;
2622;SDS011;1321;48.690;9.022;2023-05-29T00:48:13;14.50;;;13.13;;
2622;SDS011;1321;48.690;9.022;2023-05-29T00:50:43;12.63;;;11.70;;
2622;SDS011;1321;48.690;9.022;2023-05-29T00:53:11;12.93;;;12.00;;
2622;SDS011;1321;48.690;9.022;2023-05-29T00:55:41;12.70;;;11.90;;
2622;SDS011;1321;48.690;9.022;2023-05-29T00:58:09;12.73;;;11.60;;
2622;SDS011;1321;48.690;9.022;2023-05-29T01:00:38;13.30;;;12.27;;
2622;SDS011;1321;48.690;9.022;2023-05-29T01:03:06;12.70;;;11.60;;
2622;SDS011;1321;48.690;9.022;2023-05-29T01:05:35;13.97;;;12.87;;
2622;SDS011;1321;48.690;9.022;2023-05-29T01:08:05;13.23;;;12.13;;
2622;SDS011;1321;48.690;9.022;2023-05-29T01:10:34;13.30;;;12.23;;
2622;SDS011;1321;48.690;9.022;2023-05-29T01:13:03;12.67;;;11.63;;
2622;SDS011;1321;48.690;9.022;2023-05-29T01:15:37;13.00;;;12.20;;
2622;SDS011;1321;48.690;9.022;2023-05-29T01:18:22;12.30;;;11.40;;
2622;SDS011;1321;48.690;9.022;2023-05-29T01:20:57;12.83;;;11.70;;
2622;SDS011;1321;48.690;9.022;2023-05-29T01:23:40;12.10;;;11.40;;
2622;SDS011;1321;48.690;9.022;2023-05-29T01:26:38;12.73;;;11.80;;
2622;SDS011;1321;48.690;9.022;2023-05-29T01:29:12;12.17;;;11.47;;
2622;SDS011;1321;48.690;9.022;2023-05-29T01:31:42;13.30;;;12.60;;
2622;SDS011;1321;48.690;9.022;2023-05-29T01:34:13;12.30;;;11.50;;
2622;SDS011;1321;48.690;9.022;2023-05-29T01:36:41;12.90;;;11.93;;
2622;SDS011;1321;48.690;9.022;2023-05-29T01:39:09;12.60;;;11.90;;
2622;SDS011;1321;48.690;9.022;2023-05-29T01:41:39;12.30;;;11.37;;
2622;SDS011;1321;48.690;9.022;2023-05-29T01:44:08;13.30;;;12.30;;
2622;SDS011;1321;48.690;9.022;2023-05-29T01:46:37;13.77;;;12.77;;
2622;SDS011;1321;48.690;9.022;2023-05-29T01:49:06;12.93;;;12.10;;
2622;SDS011;1321;48.690;9.022;2023-05-29T01:51:36;12.40;;;11.73;;
2622;SDS011;1321;48.690;9.022;2023-05-29T01:54:04;13.37;;;12.37;;
2622;SDS011;1321;48.690;9.022;2023-05-29T01:56:32;13.60;;;12.50;;
2622;SDS011;1321;48.690;9.022;2023-05-29T01:59:03;12.47;;;11.80;;
2622;SDS011;1321;48.690;9.022;2023-05-29T02:01:31;12.63;;;11.90;;
2622;SDS011;1321;48.690;9.022;2023-05-29T02:04:00;12.10;;;11.40;;
2622;SDS011;1321;48.690;9.022;2023-05-29T02:06:28;12.67;;;11.87;;
2622;SDS011;1321;48.690;9.022;2023-05-29T02:08:57;13.20;;;12.20;;
2622;SDS011;1321;48.690;9.022;2023-05-29T02:11:25;12.90;;;12.00;;
2622;SDS011;1321;48.690;9.022;2023-05-29T02:13:53;13.30;;;12.53;;
2622;SDS011;1321;48.690;9.022;2023-05-29T02:16:23;12.93;;;12.10;;
2622;SDS011;1321;48.690;9.022;2023-05-29T02:18:54;12.40;;;11.60;;
2622;SDS011;1321;48.690;9.022;2023-05-29T02:21:22;13.77;;;12.80;;
2622;SDS011;1321;48.690;9.022;2023-05-29T02:23:50;12.93;;;12.03;;
2622;SDS011;1321;48.690;9.022;2023-05-29T02:26:18;12.60;;;11.90;;
2622;SDS011;1321;48.690;9.022;2023-05-29T02:28:47;13.60;;;12.53;;
2622;SDS011;1321;48.690;9.022;2023-05-29T02:31:15;12.13;;;11.43;;
2622;SDS011;1321;48.690;9.022;2023-05-29T02:33:44;13.13;;;12.10;;
2622;SDS011;1321;48.690;9.022;2023-05-29T02:36:12;13.03;;;12.23;;
2622;SDS011;1321;48.690;9.022;2023-05-29T02:38:42;13.00;;;12.20;;
2622;SDS011;1321;48.690;9.022;2023-05-29T02:41:10;13.67;;;12.77;;
2622;SDS011;1321;48.690;9.022;2023-05-29T02:43:38;12.77;;;11.90;;
2622;SDS011;1321;48.690;9.022;2023-05-29T02:46:06;13.50;;;12.60;;
2622;SDS011;1321;48.690;9.022;2023-05-29T02:48:34;13.30;;;12.47;;
2622;SDS011;1321;48.690;9.022;2023-05-29T02:51:04;13.07;;;12.17;;
2622;SDS011;1321;48.690;9.022;2023-05-29T02:53:32;13.37;;;12.57;;
2622;SDS011;1321;48.690;9.022;2023-05-29T02:56:00;12.57;;;11.80;;
2622;SDS011;1321;48.690;9.022;2023-05-29T02:58:28;12.90;;;12.20;;
2622;SDS011;1321;48.690;9.022;2023-05-29T03:00:56;12.50;;;11.80;;
2622;SDS011;1321;48.690;9.022;2023-05-29T03:03:24;14.23;;;13.10;;
2622;SDS011;1321;48.690;9.022;2023-05-29T03:05:53;11.37;;;10.73;;
2622;SDS011;1321;48.690;9.022;2023-05-29T03:08:22;16.77;;;15.13;;
2622;SDS011;1321;48.690;9.022;2023-05-29T03:10:51;20.63;;;18.00;;
2622;SDS011;1321;48.690;9.022;2023-05-29T03:13:20;18.87;;;16.77;;
2622;SDS011;1321;48.690;9.022;2023-05-29T03:15:48;14.07;;;12.87;;
2622;SDS011;1321;48.690;9.022;2023-05-29T03:18:17;13.90;;;12.70;;
2622;SDS011;1321;48.690;9.022;2023-05-29T03:20:45;13.37;;;12.43;;
2622;SDS011;1321;48.690;9.022;2023-05-29T03:23:14;12.80;;;12.00;;
2622;SDS011;1321;48.690;9.022;2023-05-29T03:25:43;13.17;;;12.37;;
2622;SDS011;1321;48.690;9.022;2023-05-29T03:28:11;13.20;;;12.30;;
2622;SDS011;1321;48.690;9.022;2023-05-29T03:30:40;14.00;;;12.57;;
2622;SDS011;1321;48.690;9.022;2023-05-29T03:33:08;13.10;;;12.20;;
2622;SDS011;1321;48.690;9.022;2023-05-29T03:35:36;13.33;;;12.53;;
2622;SDS011;1321;48.690;9.022;2023-05-29T03:38:04;12.50;;;11.70;;
2622;SDS011;1321;48.690;9.022;2023-05-29T03:40:32;13.60;;;12.80;;
2622;SDS011;1321;48.690;9.022;2023-05-29T03:43:01;12.97;;;12.10;;
2622;SDS011;1321;48.690;9.022;2023-05-29T03:45:29;12.83;;;11.93;;
2622;SDS011;1321;48.690;9.022;2023-05-29T03:47:57;12.50;;;11.70;;
2622;SDS011;1321;48.690;9.022;2023-05-29T03:50:26;11.80;;;11.10;;
2622;SDS011;1321;48.690;9.022;2023-05-29T03:52:54;12.17;;;11.47;;
2622;SDS011;1321;48.690;9.022;2023-05-29T03:55:22;13.17;;;12.43;;
2622;SDS011;1321;48.690;9.022;2023-05-29T03:57:50;12.63;;;11.90;;
2622;SDS011;1321;48.690;9.022;2023-05-29T04:00:19;12.37;;;11.40;;
2622;SDS011;1321;48.690;9.022;2023-05-29T04:02:48;12.50;;;11.80;;
2622;SDS011;1321;48.690;9.022;2023-05-29T04:05:16;12.80;;;11.90;;
2622;SDS011;1321;48.690;9.022;2023-05-29T04:07:44;12.70;;;12.00;;
2622;SDS011;1321;48.690;9.022;2023-05-29T04:10:13;12.30;;;11.60;;
2622;SDS011;1321;48.690;9.022;2023-05-29T04:12:42;12.93;;;12.13;;
2622;SDS011;1321;48.690;9.022;2023-05-29T04:15:11;13.23;;;12.33;;
2622;SDS011;1321;48.690;9.022;2023-05-29T04:17:40;13.37;;;12.53;;
2622;SDS011;1321;48.690;9.022;2023-05-29T04:20:09;15.50;;;14.33;;
2622;SDS011;1321;48.690;9.022;2023-05-29T04:22:37;15.83;;;14.73;;
2622;SDS011;1321;48.690;9.022;2023-05-29T04:25:06;14.57;;;13.60;;
2622;SDS011;1321;48.690;9.022;2023-05-29T04:27:34;14.70;;;13.60;;
2622;SDS011;1321;48.690;9.022;2023-05-29T04:30:04;14.10;;;13.30;;
2622;SDS011;1321;48.690;9.022;2023-05-29T04:32:33;15.00;;;13.80;;
2622;SDS011;1321;48.690;9.022;2023-05-29T04:35:04;14.93;;;13.70;;
2622;SDS011;1321;48.690;9.022;2023-05-29T04:37:32;14.13;;;13.20;;
2622;SDS011;1321;48.690;9.022;2023-05-29T04:40:04;14.00;;;13.10;;
2622;SDS011;1321;48.690;9.022;2023-05-29T04:42:35;14.97;;;13.87;;
2622;SDS011;1321;48.690;9.022;2023-05-29T04:45:03;14.83;;;14.03;;
2622;SDS011;1321;48.690;9.022;2023-05-29T04:47:32;14.50;;;13.37;;
2622;SDS011;1321;48.690;9.022;2023-05-29T04:50:00;14.33;;;13.43;;
2622;SDS011;1321;48.690;9.022;2023-05-29T04:52:30;14.30;;;13.30;;
2622;SDS011;1321;48.690;9.022;2023-05-29T04:54:58;14.70;;;13.70;;
2622;SDS011;1321;48.690;9.022;2023-05-29T04:57:26;14.37;;;13.30;;
2622;SDS011;1321;48.690;9.022;2023-05-29T04:59:54;14.30;;;13.40;;
2622;SDS011;1321;48.690;9.022;2023-05-29T05:02:22;14.40;;;13.43;;
2622;SDS011;1321;48.690;9.022;2023-05-29T05:04:51;14.47;;;13.67;;
2622;SDS011;1321;48.690;9.022;2023-05-29T05:07:19;14.27;;;13.20;;
2622;SDS011;1321;48.690;9.022;2023-05-29T05:09:48;15.70;;;14.43;;
2622;SDS011;1321;48.690;9.022;2023-05-29T05:12:16;14.53;;;13.63;;
2622;SDS011;1321;48.690;9.022;2023-05-29T05:14:44;14.20;;;13.13;;
2622;SDS011;1321;48.690;9.022;2023-05-29T05:17:13;14.73;;;13.67;;
2622;SDS011;1321;48.690;9.022;2023-05-29T05:19:41;14.33;;;13.47;;
2622;SDS011;1321;48.690;9.022;2023-05-29T05:22:09;14.37;;;13.30;;
2622;SDS011;1321;48.690;9.022;2023-05-29T05:24:37;14.87;;;13.77;;
2622;SDS011;1321;48.690;9.022;2023-05-29T05:27:06;15.40;;;14.10;;
2622;SDS011;1321;48.690;9.022;2023-05-29T05:29:34;15.20;;;13.77;;
2622;SDS011;1321;48.690;9.022;2023-05-29T05:32:02;14.30;;;13.23;;
2622;SDS011;1321;48.690;9.022;2023-05-29T05:34:31;13.97;;;13.10;;
2622;SDS011;1321;48.690;9.022;2023-05-29T05:36:59;13.77;;;13.07;;
2622;SDS011;1321;48.690;9.022;2023-05-29T05:39:29;14.90;;;13.90;;
2622;SDS011;1321;48.690;9.022;2023-05-29T05:41:57;14.07;;;13.37;;
2622;SDS011;1321;48.690;9.022;2023-05-29T05:44:26;14.00;;;13.10;;
2622;SDS011;1321;48.690;9.022;2023-05-29T05:46:54;14.83;;;13.93;;
2622;SDS011;1321;48.690;9.022;2023-05-29T05:49:22;15.10;;;14.17;;
2622;SDS011;1321;48.690;9.022;2023-05-29T05:51:51;13.90;;;13.10;;
2622;SDS011;1321;48.690;9.022;2023-05-29T05:54:19;15.03;;;13.93;;
2622;SDS011;1321;48.690;9.022;2023-05-29T05:56:47;14.50;;;13.63;;
2622;SDS011;1321;48.690;9.022;2023-05-29T05:59:15;14.90;;;14.00;;
2622;SDS011;1321;48.690;9.022;2023-05-29T06:01:44;15.20;;;14.20;;
2622;SDS011;1321;48.690;9.022;2023-05-29T06:04:13;14.10;;;13.20;;
2622;SDS011;1321;48.690;9.022;2023-05-29T06:06:41;14.00;;;13.20;;
2622;SDS011;1321;48.690;9.022;2023-05-29T06:09:09;15.53;;;14.43;;
2622;SDS011;1321;48.690;9.022;2023-05-29T06:11:38;14.07;;;13.03;;
2622;SDS011;1321;48.690;9.022;2023-05-29T06:14:07;14.73;;;13.63;;
2622;SDS011;1321;48.690;9.022;2023-05-29T06:16:35;14.03;;;13.30;;
2622;SDS011;1321;48.690;9.022;2023-05-29T06:19:04;15.70;;;14.10;;
2622;SDS011;1321;48.690;9.022;2023-05-29T06:21:32;14.23;;;13.50;;
2622;SDS011;1321;48.690;9.022;2023-05-29T06:24:01;14.30;;;13.60;;
2622;SDS011;1321;48.690;9.022;2023-05-29T06:26:29;14.87;;;14.07;;
2622;SDS011;1321;48.690;9.022;2023-05-29T06:28:57;15.50;;;14.30;;
2622;SDS011;1321;48.690;9.022;2023-05-29T06:31:26;14.60;;;13.53;;
2622;SDS011;1321;48.690;9.022;2023-05-29T06:33:55;14.53;;;13.63;;
2622;SDS011;1321;48.690;9.022;2023-05-29T06:36:24;14.43;;;13.50;;
2622;SDS011;1321;48.690;9.022;2023-05-29T06:38:53;13.83;;;12.73;;
2622;SDS011;1321;48.690;9.022;2023-05-29T06:41:21;14.73;;;13.93;;
2622;SDS011;1321;48.690;9.022;2023-05-29T06:43:49;14.60;;;13.80;;
2622;SDS011;1321;48.690;9.022;2023-05-29T06:46:18;15.63;;;14.73;;
2622;SDS011;1321;48.690;9.022;2023-05-29T06:48:46;13.77;;;13.07;;
2622;SDS011;1321;48.690;9.022;2023-05-29T06:51:15;14.90;;;13.83;;
2622;SDS011;1321;48.690;9.022;2023-05-29T06:53:46;14.13;;;13.30;;
2622;SDS011;1321;48.690;9.022;2023-05-29T06:56:14;14.83;;;14.00;;
2622;SDS011;1321;48.690;9.022;2023-05-29T06:58:42;14.83;;;14.00;;
2622;SDS011;1321;48.690;9.022;2023-05-29T07:01:12;14.33;;;13.43;;
2622;SDS011;1321;48.690;9.022;2023-05-29T07:03:41;14.37;;;13.57;;
2622;SDS011;1321;48.690;9.022;2023-05-29T07:06:09;14.47;;;13.67;;
2622;SDS011;1321;48.690;9.022;2023-05-29T07:08:37;13.43;;;12.87;;
2622;SDS011;1321;48.690;9.022;2023-05-29T07:11:07;14.10;;;13.30;;
2622;SDS011;1321;48.690;9.022;2023-05-29T07:13:35;14.93;;;14.23;;
2622;SDS011;1321;48.690;9.022;2023-05-29T07:16:04;15.03;;;13.70;;
2622;SDS011;1321;48.690;9.022;2023-05-29T07:18:49;14.97;;;14.10;;
2622;SDS011;1321;48.690;9.022;2023-05-29T07:21:17;14.73;;;13.93;;
2622;SDS011;1321;48.690;9.022;2023-05-29T07:23:46;14.83;;;14.07;;
2622;SDS011;1321;48.690;9.022;2023-05-29T07:26:16;14.57;;;13.87;;
2622;SDS011;1321;48.690;9.022;2023-05-29T07:28:44;15.00;;;14.30;;
2622;SDS011;1321;48.690;9.022;2023-05-29T07:31:12;14.00;;;13.37;;
2622;SDS011;1321;48.690;9.022;2023-05-29T07:33:40;15.67;;;14.57;;
2622;SDS011;1321;48.690;9.022;2023-05-29T07:36:09;14.43;;;13.80;;
2622;SDS011;1321;48.690;9.022;2023-05-29T07:38:37;14.63;;;13.90;;
2622;SDS011;1321;48.690;9.022;2023-05-29T07:41:05;14.83;;;14.00;;
2622;SDS011;1321;48.690;9.022;2023-05-29T07:43:35;15.30;;;14.40;;
2622;SDS011;1321;48.690;9.022;2023-05-29T07:46:03;15.20;;;14.27;;
2622;SDS011;1321;48.690;9.022;2023-05-29T07:48:31;14.67;;;14.07;;
2622;SDS011;1321;48.690;9.022;2023-05-29T07:50:59;14.70;;;13.87;;
2622;SDS011;1321;48.690;9.022;2023-05-29T07:53:27;15.00;;;14.23;;
2622;SDS011;1321;48.690;9.022;2023-05-29T07:55:56;14.87;;;13.87;;
2622;SDS011;1321;48.690;9.022;2023-05-29T07:58:24;15.13;;;14.17;;
2622;SDS011;1321;48.690;9.022;2023-05-29T08:00:53;14.67;;;13.87;;
2622;SDS011;1321;48.690;9.022;2023-05-29T08:03:22;15.30;;;14.30;;
2622;SDS011;1321;48.690;9.022;2023-05-29T08:05:50;15.47;;;14.67;;
2622;SDS011;1321;48.690;9.022;2023-05-29T08:08:18;15.23;;;14.50;;
2622;SDS011;1321;48.690;9.022;2023-05-29T08:10:46;15.20;;;14.40;;
2622;SDS011;1321;48.690;9.022;2023-05-29T08:13:14;16.20;;;15.23;;
2622;SDS011;1321;48.690;9.022;2023-05-29T08:15:42;16.80;;;15.90;;
2622;SDS011;1321;48.690;9.022;2023-05-29T08:18:12;15.90;;;15.10;;
2622;SDS011;1321;48.690;9.022;2023-05-29T08:20:40;15.93;;;15.00;;
2622;SDS011;1321;48.690;9.022;2023-05-29T08:23:09;17.13;;;15.93;;
2622;SDS011;1321;48.690;9.022;2023-05-29T08:25:37;16.00;;;15.30;;
2622;SDS011;1321;48.690;9.022;2023-05-29T08:28:05;16.03;;;15.20;;
2622;SDS011;1321;48.690;9.022;2023-05-29T08:30:33;16.57;;;15.40;;
2622;SDS011;1321;48.690;9.022;2023-05-29T08:33:01;16.60;;;15.60;;
2622;SDS011;1321;48.690;9.022;2023-05-29T08:35:31;15.97;;;15.13;;
2622;SDS011;1321;48.690;9.022;2023-05-29T08:37:59;15.57;;;14.70;;
2622;SDS011;1321;48.690;9.022;2023-05-29T08:40:27;15.93;;;15.23;;
2622;SDS011;1321;48.690;9.022;2023-05-29T08:42:56;16.33;;;15.50;;
2622;SDS011;1321;48.690;9.022;2023-05-29T08:45:26;16.70;;;15.63;;
2622;SDS011;1321;48.690;9.022;2023-05-29T08:47:56;16.73;;;15.83;;
2622;SDS011;1321;48.690;9.022;2023-05-29T08:50:27;15.87;;;15.17;;
2622;SDS011;1321;48.690;9.022;2023-05-29T08:52:57;15.97;;;15.30;;
2622;SDS011;1321;48.690;9.022;2023-05-29T08:55:26;16.80;;;16.00;;
2622;SDS011;1321;48.690;9.022;2023-05-29T08:57:54;15.93;;;15.23;;
2622;SDS011;1321;48.690;9.022;2023-05-29T09:00:23;16.50;;;15.73;;
2622;SDS011;1321;48.690;9.022;2023-05-29T09:02:54;16.03;;;15.33;;
2622;SDS011;1321;48.690;9.022;2023-05-29T09:05:23;15.40;;;14.80;;
2622;SDS011;1321;48.690;9.022;2023-05-29T09:07:54;17.17;;;16.37;;
2622;SDS011;1321;48.690;9.022;2023-05-29T09:10:24;16.13;;;15.27;;
2622;SDS011;1321;48.690;9.022;2023-05-29T09:12:52;16.50;;;15.70;;
2622;SDS011;1321;48.690;9.022;2023-05-29T09:15:21;15.90;;;15.00;;
2622;SDS011;1321;48.690;9.022;2023-05-29T09:17:50;16.40;;;15.40;;
2622;SDS011;1321;48.690;9.022;2023-05-29T09:20:19;15.90;;;15.00;;
2622;SDS011;1321;48.690;9.022;2023-05-29T09:22:54;16.33;;;15.53;;
2622;SDS011;1321;48.690;9.022;2023-05-29T09:25:24;16.50;;;15.60;;
2622;SDS011;1321;48.690;9.022;2023-05-29T09:27:58;17.47;;;16.47;;
2622;SDS011;1321;48.690;9.022;2023-05-29T09:30:32;16.37;;;15.50;;
2622;SDS011;1321;48.690;9.022;2023-05-29T09:33:02;15.73;;;14.93;;
2622;SDS011;1321;48.690;9.022;2023-05-29T09:35:32;15.43;;;14.90;;
2622;SDS011;1321;48.690;9.022;2023-05-29T09:38:01;16.00;;;15.20;;
2622;SDS011;1321;48.690;9.022;2023-05-29T09:40:31;16.20;;;15.40;;
2622;SDS011;1321;48.690;9.022;2023-05-29T09:43:03;16.03;;;15.23;;
2622;SDS011;1321;48.690;9.022;2023-05-29T09:45:37;17.83;;;16.83;;
2622;SDS011;1321;48.690;9.022;2023-05-29T09:48:06;15.87;;;15.17;;
2622;SDS011;1321;48.690;9.022;2023-05-29T09:50:35;16.73;;;15.73;;
2622;SDS011;1321;48.690;9.022;2023-05-29T09:53:05;16.30;;;15.53;;
2622;SDS011;1321;48.690;9.022;2023-05-29T09:55:46;17.33;;;16.43;;
2622;SDS011;1321;48.690;9.022;2023-05-29T09:58:17;16.53;;;15.73;;
2622;SDS011;1321;48.690;9.022;2023-05-29T10:00:45;17.87;;;16.50;;
2622;SDS011;1321;48.690;9.022;2023-05-29T10:03:15;17.40;;;16.40;;
2622;SDS011;1321;48.690;9.022;2023-05-29T10:05:46;16.53;;;15.63;;
2622;SDS011;1321;48.690;9.022;2023-05-29T10:08:17;15.47;;;14.77;;
2622;SDS011;1321;48.690;9.022;2023-05-29T10:10:49;16.60;;;15.63;;
2622;SDS011;1321;48.690;9.022;2023-05-29T10:13:23;16.73;;;15.73;;
2622;SDS011;1321;48.690;9.022;2023-05-29T10:15:53;17.20;;;16.20;;
2622;SDS011;1321;48.690;9.022;2023-05-29T10:18:24;16.33;;;15.53;;
2622;SDS011;1321;48.690;9.022;2023-05-29T10:20:59;15.80;;;15.07;;
2622;SDS011;1321;48.690;9.022;2023-05-29T10:23:29;16.70;;;15.80;;
2622;SDS011;1321;48.690;9.022;2023-05-29T10:26:02;15.80;;;15.10;;
2622;SDS011;1321;48.690;9.022;2023-05-29T10:28:34;15.90;;;15.30;;
2622;SDS011;1321;48.690;9.022;2023-05-29T10:31:08;16.17;;;15.57;;
2622;SDS011;1321;48.690;9.022;2023-05-29T10:33:47;16.20;;;15.50;;
2622;SDS011;1321;48.690;9.022;2023-05-29T10:36:27;16.63;;;15.63;;
2622;SDS011;1321;48.690;9.022;2023-05-29T10:39:00;16.20;;;15.40;;
2622;SDS011;1321;48.690;9.022;2023-05-29T10:41:30;16.03;;;15.17;;
2622;SDS011;1321;48.690;9.022;2023-05-29T10:47:09;16.83;;;15.80;;
2622;SDS011;1321;48.690;9.022;2023-05-29T10:49:39;15.83;;;15.17;;
2622;SDS011;1321;48.690;9.022;2023-05-29T10:52:16;17.50;;;16.70;;
2622;SDS011;1321;48.690;9.022;2023-05-29T10:54:51;16.20;;;15.47;;
2622;SDS011;1321;48.690;9.022;2023-05-29T10:57:23;15.70;;;14.60;;
2622;SDS011;1321;48.690;9.022;2023-05-29T10:59:59;15.70;;;15.00;;
2622;SDS011;1321;48.690;9.022;2023-05-29T11:02:39;15.90;;;15.30;;
2622;SDS011;1321;48.690;9.022;2023-05-29T11:05:18;15.67;;;15.07;;
2622;SDS011;1321;48.690;9.022;2023-05-29T11:07:50;15.60;;;15.00;;
2622;SDS011;1321;48.690;9.022;2023-05-29T11:13:13;17.00;;;16.07;;
2622;SDS011;1321;48.690;9.022;2023-05-29T11:16:04;15.10;;;14.40;;
2622;SDS011;1321;48.690;9.022;2023-05-29T11:18:40;15.97;;;14.90;;
2622;SDS011;1321;48.690;9.022;2023-05-29T11:21:13;15.50;;;14.90;;
2622;SDS011;1321;48.690;9.022;2023-05-29T11:23:51;14.80;;;14.20;;
2622;SDS011;1321;48.690;9.022;2023-05-29T11:26:19;16.10;;;15.30;;
2622;SDS011;1321;48.690;9.022;2023-05-29T11:28:51;16.23;;;15.33;;
2622;SDS011;1321;48.690;9.022;2023-05-29T11:31:19;16.20;;;15.20;;
2622;SDS011;1321;48.690;9.022;2023-05-29T11:33:50;14.73;;;14.13;;
2622;SDS011;1321;48.690;9.022;2023-05-29T11:36:18;15.83;;;15.13;;
2622;SDS011;1321;48.690;9.022;2023-05-29T11:38:46;15.33;;;14.40;;
2622;SDS011;1321;48.690;9.022;2023-05-29T11:41:16;15.87;;;14.93;;
2622;SDS011;1321;48.690;9.022;2023-05-29T11:43:52;14.63;;;13.93;;
2622;SDS011;1321;48.690;9.022;2023-05-29T11:46:24;14.97;;;14.33;;
2622;SDS011;1321;48.690;9.022;2023-05-29T11:48:52;15.30;;;14.50;;
2622;SDS011;1321;48.690;9.022;2023-05-29T11:51:21;15.23;;;14.57;;
2622;SDS011;1321;48.690;9.022;2023-05-29T11:53:49;14.70;;;14.20;;
2622;SDS011;1321;48.690;9.022;2023-05-29T11:56:24;15.10;;;14.50;;
2622;SDS011;1321;48.690;9.022;2023-05-29T11:58:54;14.23;;;13.60;;
2622;SDS011;1321;48.690;9.022;2023-05-29T12:01:24;14.87;;;14.27;;
2622;SDS011;1321;48.690;9.022;2023-05-29T12:03:52;15.37;;;14.53;;
2622;SDS011;1321;48.690;9.022;2023-05-29T12:06:30;15.07;;;14.17;;
2622;SDS011;1321;48.690;9.022;2023-05-29T12:08:59;14.30;;;13.70;;
2622;SDS011;1321;48.690;9.022;2023-05-29T12:11:30;15.17;;;14.07;;
2622;SDS011;1321;48.690;9.022;2023-05-29T12:14:02;14.60;;;13.80;;
2622;SDS011;1321;48.690;9.022;2023-05-29T12:16:31;14.00;;;13.30;;
2622;SDS011;1321;48.690;9.022;2023-05-29T12:19:01;14.60;;;13.93;;
2622;SDS011;1321;48.690;9.022;2023-05-29T12:21:29;24.90;;;22.20;;
2622;SDS011;1321;48.690;9.022;2023-05-29T12:23:58;15.10;;;14.03;;
2622;SDS011;1321;48.690;9.022;2023-05-29T12:26:29;13.30;;;12.77;;
2622;SDS011;1321;48.690;9.022;2023-05-29T12:29:03;13.80;;;13.17;;
2622;SDS011;1321;48.690;9.022;2023-05-29T12:31:32;13.17;;;12.67;;
2622;SDS011;1321;48.690;9.022;2023-05-29T12:34:01;14.47;;;13.73;;
2622;SDS011;1321;48.690;9.022;2023-05-29T12:36:30;13.07;;;12.47;;
2622;SDS011;1321;48.690;9.022;2023-05-29T12:38:59;14.63;;;13.70;;
2622;SDS011;1321;48.690;9.022;2023-05-29T12:41:33;13.13;;;12.63;;
2622;SDS011;1321;48.690;9.022;2023-05-29T12:44:04;13.47;;;12.77;;
2622;SDS011;1321;48.690;9.022;2023-05-29T12:46:37;14.10;;;12.90;;
2622;SDS011;1321;48.690;9.022;2023-05-29T12:49:12;12.00;;;11.50;;
2622;SDS011;1321;48.690;9.022;2023-05-29T12:51:41;12.63;;;12.13;;
2622;SDS011;1321;48.690;9.022;2023-05-29T12:54:10;12.27;;;11.67;;
2622;SDS011;1321;48.690;9.022;2023-05-29T12:56:39;12.97;;;12.30;;
2622;SDS011;1321;48.690;9.022;2023-05-29T12:59:09;13.20;;;12.50;;
2622;SDS011;1321;48.690;9.022;2023-05-29T13:01:38;12.47;;;11.93;;
2622;SDS011;1321;48.690;9.022;2023-05-29T13:04:07;12.67;;;12.13;;
2622;SDS011;1321;48.690;9.022;2023-05-29T13:06:36;12.60;;;11.83;;
2622;SDS011;1321;48.690;9.022;2023-05-29T13:09:05;12.23;;;11.63;;
2622;SDS011;1321;48.690;9.022;2023-05-29T13:11:34;11.47;;;11.07;;
2622;SDS011;1321;48.690;9.022;2023-05-29T13:14:04;11.93;;;11.43;;
2622;SDS011;1321;48.690;9.022;2023-05-29T13:16:33;11.97;;;11.13;;
2622;SDS011;1321;48.690;9.022;2023-05-29T13:19:02;11.53;;;11.03;;
2622;SDS011;1321;48.690;9.022;2023-05-29T13:21:32;11.13;;;10.73;;
2622;SDS011;1321;48.690;9.022;2023-05-29T13:24:00;11.40;;;10.80;;
2622;SDS011;1321;48.690;9.022;2023-05-29T13:26:28;11.20;;;10.80;;
2622;SDS011;1321;48.690;9.022;2023-05-29T13:28:56;9.97;;;9.60;;
2622;SDS011;1321;48.690;9.022;2023-05-29T13:31:24;11.00;;;10.60;;
2622;SDS011;1321;48.690;9.022;2023-05-29T13:33:54;10.10;;;9.80;;
2622;SDS011;1321;48.690;9.022;2023-05-29T13:36:22;10.73;;;10.23;;
2622;SDS011;1321;48.690;9.022;2023-05-29T13:38:50;10.60;;;10.20;;
2622;SDS011;1321;48.690;9.022;2023-05-29T13:41:19;10.90;;;10.20;;
2622;SDS011;1321;48.690;9.022;2023-05-29T13:43:47;10.97;;;10.47;;
2622;SDS011;1321;48.690;9.022;2023-05-29T13:46:15;10.13;;;9.83;;
2622;SDS011;1321;48.690;9.022;2023-05-29T13:48:44;10.73;;;10.10;;
2622;SDS011;1321;48.690;9.022;2023-05-29T13:51:13;10.63;;;10.23;;
2622;SDS011;1321;48.690;9.022;2023-05-29T13:53:42;11.50;;;11.00;;
2622;SDS011;1321;48.690;9.022;2023-05-29T13:56:10;11.27;;;10.70;;
2622;SDS011;1321;48.690;9.022;2023-05-29T13:58:38;11.03;;;10.57;;
2622;SDS011;1321;48.690;9.022;2023-05-29T14:01:06;11.00;;;10.50;;
2622;SDS011;1321;48.690;9.022;2023-05-29T14:03:34;10.53;;;10.13;;
2622;SDS011;1321;48.690;9.022;2023-05-29T14:06:02;10.70;;;10.20;;
2622;SDS011;1321;48.690;9.022;2023-05-29T14:08:33;10.73;;;10.33;;
2622;SDS011;1321;48.690;9.022;2023-05-29T14:11:01;11.00;;;10.40;;
2622;SDS011;1321;48.690;9.022;2023-05-29T14:13:29;11.17;;;10.67;;
2622;SDS011;1321;48.690;9.022;2023-05-29T14:15:57;11.03;;;10.53;;
2622;SDS011;1321;48.690;9.022;2023-05-29T14:18:26;10.37;;;9.97;;
2622;SDS011;1321;48.690;9.022;2023-05-29T14:20:54;11.83;;;11.23;;
2622;SDS011;1321;48.690;9.022;2023-05-29T14:23:22;11.47;;;10.90;;
2622;SDS011;1321;48.690;9.022;2023-05-29T14:25:53;10.93;;;10.53;;
2622;SDS011;1321;48.690;9.022;2023-05-29T14:28:21;9.77;;;9.27;;
2622;SDS011;1321;48.690;9.022;2023-05-29T14:30:49;10.00;;;9.60;;
2622;SDS011;1321;48.690;9.022;2023-05-29T14:33:18;10.67;;;10.27;;
2622;SDS011;1321;48.690;9.022;2023-05-29T14:35:46;10.50;;;9.77;;
2622;SDS011;1321;48.690;9.022;2023-05-29T14:38:14;10.40;;;9.90;;
2622;SDS011;1321;48.690;9.022;2023-05-29T14:40:42;10.90;;;10.40;;
2622;SDS011;1321;48.690;9.022;2023-05-29T14:43:20;10.60;;;10.17;;
2622;SDS011;1321;48.690;9.022;2023-05-29T14:45:53;10.47;;;10.00;;
2622;SDS011;1321;48.690;9.022;2023-05-29T14:48:21;10.70;;;10.07;;
2622;SDS011;1321;48.690;9.022;2023-05-29T14:50:50;10.80;;;10.30;;
2622;SDS011;1321;48.690;9.022;2023-05-29T14:53:18;9.97;;;9.47;;
2622;SDS011;1321;48.690;9.022;2023-05-29T14:56:33;10.70;;;10.10;;
2622;SDS011;1321;48.690;9.022;2023-05-29T14:59:00;9.87;;;9.47;;
2622;SDS011;1321;48.690;9.022;2023-05-29T15:01:29;10.37;;;9.87;;
2622;SDS011;1321;48.690;9.022;2023-05-29T15:03:57;10.10;;;9.57;;
2622;SDS011;1321;48.690;9.022;2023-05-29T15:06:28;9.93;;;9.53;;
2622;SDS011;1321;48.690;9.022;2023-05-29T15:08:56;9.70;;;9.30;;